createdAt,value
2017-04-08T00:00:58.094Z,0
2017-04-08T00:01:58.926Z,0
2017-04-08T00:02:59.308Z,0
2017-04-08T00:03:59.690Z,0
2017-04-08T00:05:00.222Z,0
2017-04-08T00:06:00.775Z,0
2017-04-08T00:07:01.292Z,0
2017-04-08T00:08:01.828Z,0
2017-04-08T00:09:02.357Z,0
2017-04-08T00:10:02.889Z,0
2017-04-08T00:11:03.440Z,0
2017-04-08T00:12:03.949Z,0
2017-04-08T00:13:04.481Z,0
2017-04-08T00:14:05.010Z,0
2017-04-08T00:15:05.544Z,0
2017-04-08T00:16:06.071Z,0
2017-04-08T00:17:06.606Z,0
2017-04-08T00:18:07.135Z,0
2017-04-08T00:19:07.666Z,0
2017-04-08T00:20:08.202Z,0
2017-04-08T00:21:08.874Z,0
2017-04-08T00:22:09.255Z,0
2017-04-08T00:23:09.783Z,0
2017-04-08T00:24:10.485Z,0
2017-04-08T00:25:10.844Z,0
2017-04-08T00:26:11.377Z,0
2017-04-08T00:27:11.906Z,0
2017-04-08T00:28:12.436Z,0
2017-04-08T00:29:13.117Z,0
2017-04-08T00:30:13.643Z,0
2017-04-08T00:31:14.028Z,0
2017-04-08T00:32:14.559Z,0
2017-04-08T00:33:15.095Z,0
2017-04-08T00:34:15.619Z,0
2017-04-08T00:35:16.152Z,0
2017-04-08T00:36:16.684Z,0
2017-04-08T00:37:17.214Z,0
2017-04-08T00:38:17.748Z,0
2017-04-08T00:39:18.279Z,0
2017-04-08T00:40:18.806Z,0
2017-04-08T00:41:19.493Z,0
2017-04-08T00:42:19.874Z,0
2017-04-08T00:43:20.402Z,0
2017-04-08T00:44:20.942Z,0
2017-04-08T00:45:21.471Z,0
2017-04-08T00:46:22.153Z,0
2017-04-08T00:47:22.688Z,0
2017-04-08T00:48:23.070Z,0
2017-04-08T00:49:23.605Z,0
2017-04-08T00:50:24.128Z,0
2017-04-08T00:51:24.811Z,0
2017-04-08T00:52:25.198Z,0
2017-04-08T00:53:25.721Z,0
2017-04-08T00:54:26.251Z,0
2017-04-08T00:55:26.813Z,0
2017-04-08T00:56:27.308Z,0
2017-04-08T00:57:27.842Z,0
2017-04-08T00:58:28.373Z,0
2017-04-08T00:59:28.913Z,0
2017-04-08T01:00:29.435Z,0
2017-04-08T01:01:29.969Z,0
2017-04-08T01:02:30.502Z,0
2017-04-08T01:03:31.065Z,0
2017-04-08T01:04:31.561Z,0
2017-04-08T01:05:32.093Z,0
2017-04-08T01:06:32.623Z,0
2017-04-08T01:07:33.152Z,0
2017-04-08T01:08:33.683Z,0
2017-04-08T01:09:34.212Z,0
2017-04-08T01:10:34.742Z,0
2017-04-08T01:11:35.268Z,0
2017-04-08T01:12:35.806Z,0
2017-04-08T01:13:36.331Z,0
2017-04-08T01:14:36.863Z,0
2017-04-08T01:15:37.403Z,0
2017-04-08T01:16:37.924Z,0
2017-04-08T01:17:38.478Z,0
2017-04-08T01:18:38.988Z,0
2017-04-08T01:19:39.523Z,0
2017-04-08T01:20:40.055Z,0
2017-04-08T01:21:40.591Z,0
2017-04-08T01:22:41.118Z,0
2017-04-08T01:23:41.652Z,0
2017-04-08T01:24:42.184Z,0
2017-04-08T01:25:42.722Z,0
2017-04-08T01:26:43.257Z,0
2017-04-08T01:27:43.795Z,0
2017-04-08T01:28:44.328Z,0
2017-04-08T01:29:44.858Z,0
2017-04-08T01:30:45.394Z,0
2017-04-08T01:31:45.917Z,0
2017-04-08T01:32:46.450Z,0
2017-04-08T01:33:46.984Z,0
2017-04-08T01:34:47.513Z,0
2017-04-08T01:35:48.040Z,0
2017-04-08T01:36:48.579Z,0
2017-04-08T01:37:49.114Z,0
2017-04-08T01:38:49.635Z,0
2017-04-08T01:39:50.172Z,0
2017-04-08T01:40:50.698Z,0
2017-04-08T01:41:51.227Z,0
2017-04-08T01:42:51.759Z,0
2017-04-08T01:43:52.289Z,0
2017-04-08T01:44:52.819Z,0
2017-04-08T01:45:53.351Z,0
2017-04-08T01:46:53.881Z,0
2017-04-08T01:47:54.412Z,0
2017-04-08T01:48:54.945Z,0
2017-04-08T01:49:55.628Z,0
2017-04-08T01:50:56.012Z,0
2017-04-08T01:51:56.545Z,0
2017-04-08T01:52:57.071Z,0
2017-04-08T01:53:57.635Z,0
2017-04-08T01:54:58.282Z,0
2017-04-08T01:55:58.663Z,0
2017-04-08T01:56:59.198Z,0
2017-04-08T01:57:59.733Z,0
2017-04-08T01:59:00.250Z,0
2017-04-08T02:00:00.959Z,0
2017-04-08T02:01:01.317Z,0
2017-04-08T02:02:01.994Z,0
2017-04-08T02:03:02.376Z,0
2017-04-08T02:04:02.907Z,0
2017-04-08T02:05:03.440Z,0
2017-04-08T02:06:04.122Z,0
2017-04-08T02:07:04.654Z,0
2017-04-08T02:08:05.067Z,0
2017-04-08T02:09:05.585Z,0
2017-04-08T02:10:06.118Z,0
2017-04-08T02:11:06.649Z,0
2017-04-08T02:12:07.180Z,0
2017-04-08T02:13:07.714Z,0
2017-04-08T02:14:08.246Z,0
2017-04-08T02:15:08.779Z,0
2017-04-08T02:16:09.461Z,0
2017-04-08T02:17:09.840Z,0
2017-04-08T02:18:10.521Z,0
2017-04-08T02:19:11.051Z,0
2017-04-08T02:20:11.436Z,0
2017-04-08T02:21:11.967Z,0
2017-04-08T02:22:12.507Z,0
2017-04-08T02:23:13.032Z,0
2017-04-08T02:24:13.709Z,0
2017-04-08T02:25:14.102Z,0
2017-04-08T02:26:14.629Z,0
2017-04-08T02:27:15.157Z,0
2017-04-08T02:28:15.835Z,0
2017-04-08T02:29:16.216Z,0
2017-04-08T02:30:16.743Z,0
2017-04-08T02:31:17.277Z,0
2017-04-08T02:32:17.808Z,0
2017-04-08T02:33:18.344Z,0
2017-04-08T02:34:19.022Z,0
2017-04-08T02:35:19.403Z,0
2017-04-08T02:36:20.083Z,0
2017-04-08T02:37:20.468Z,0
2017-04-08T02:38:21.146Z,0
2017-04-08T02:39:21.524Z,0
2017-04-08T02:40:22.057Z,0
2017-04-08T02:41:22.733Z,0
2017-04-08T02:42:23.122Z,0
2017-04-08T02:43:23.647Z,0
2017-04-08T02:44:24.175Z,0
2017-04-08T02:45:24.706Z,0
2017-04-08T02:46:25.239Z,0
2017-04-08T02:47:25.771Z,0
2017-04-08T02:48:26.306Z,0
2017-04-08T02:49:26.841Z,0
2017-04-08T02:50:27.369Z,0
2017-04-08T02:51:28.052Z,0
2017-04-08T02:52:28.435Z,0
2017-04-08T02:53:28.969Z,0
2017-04-08T02:54:29.642Z,0
2017-04-08T02:55:30.025Z,0
2017-04-08T02:56:30.553Z,0
2017-04-08T02:57:31.087Z,0
2017-04-08T02:58:31.651Z,0
2017-04-08T02:59:32.166Z,0
2017-04-08T03:00:32.689Z,0
2017-04-08T03:01:33.357Z,0
2017-04-08T03:02:33.739Z,0
2017-04-08T03:03:34.274Z,0
2017-04-08T03:04:34.805Z,0
2017-04-08T03:05:35.337Z,0
2017-04-08T03:06:35.870Z,0
2017-04-08T03:07:36.398Z,0
2017-04-08T03:08:36.933Z,0
2017-04-08T03:09:37.462Z,0
2017-04-08T03:10:37.993Z,0
2017-04-08T03:11:38.525Z,0
2017-04-08T03:12:39.057Z,0
2017-04-08T03:13:39.899Z,0
2017-04-08T03:14:40.125Z,0
2017-04-08T03:15:40.652Z,0
2017-04-08T03:16:41.185Z,0
2017-04-08T03:17:41.717Z,0
2017-04-08T03:18:42.393Z,0
2017-04-08T03:19:42.775Z,0
2017-04-08T03:20:43.302Z,0
2017-04-08T03:21:43.832Z,0
2017-04-08T03:22:44.364Z,0
2017-04-08T03:23:44.895Z,0
2017-04-08T03:24:45.426Z,0
2017-04-08T03:25:45.959Z,0
2017-04-08T03:26:46.487Z,0
2017-04-08T03:27:47.023Z,0
2017-04-08T03:28:47.553Z,0
2017-04-08T03:29:48.091Z,0
2017-04-08T03:30:48.623Z,0
2017-04-08T03:31:49.154Z,0
2017-04-08T03:32:49.686Z,0
2017-04-08T03:33:50.217Z,0
2017-04-08T03:34:50.747Z,0
2017-04-08T03:35:51.452Z,0
2017-04-08T03:36:51.806Z,0
2017-04-08T03:37:52.338Z,0
2017-04-08T03:38:53.018Z,0
2017-04-08T03:39:53.396Z,0
2017-04-08T03:40:54.077Z,0
2017-04-08T03:41:54.464Z,0
2017-04-08T03:42:54.988Z,0
2017-04-08T03:43:55.518Z,0
2017-04-08T03:44:56.080Z,0
2017-04-08T03:45:56.579Z,0
2017-04-08T03:46:57.259Z,0
2017-04-08T03:47:57.643Z,0
2017-04-08T03:48:58.170Z,0
2017-04-08T03:49:58.701Z,0
2017-04-08T03:50:59.265Z,0
2017-04-08T03:51:59.763Z,0
2017-04-08T03:53:00.470Z,0
2017-04-08T03:54:00.828Z,0
2017-04-08T03:55:01.364Z,0
2017-04-08T03:56:01.888Z,0
2017-04-08T03:57:02.418Z,0
2017-04-08T03:58:03.106Z,0
2017-04-08T03:59:03.475Z,0
2017-04-08T04:00:04.008Z,0
2017-04-08T04:01:04.546Z,0
2017-04-08T04:02:05.212Z,0
2017-04-08T04:03:05.597Z,0
2017-04-08T04:04:06.127Z,0
2017-04-08T04:05:06.807Z,0
2017-04-08T04:06:07.188Z,0
2017-04-08T04:08:08.255Z,0
2017-04-08T04:09:08.788Z,0
2017-04-08T04:10:09.323Z,0
2017-04-08T04:11:10.011Z,0
2017-04-08T04:12:10.391Z,0
2017-04-08T04:13:10.926Z,0
2017-04-08T04:14:11.458Z,0
2017-04-08T04:15:11.986Z,0
2017-04-08T04:16:12.518Z,0
2017-04-08T04:17:13.197Z,0
2017-04-08T04:18:13.578Z,0
2017-04-08T04:19:14.107Z,0
2017-04-08T04:20:14.803Z,0
2017-04-08T04:21:15.318Z,0
2017-04-08T04:22:15.699Z,0
2017-04-08T04:23:16.225Z,0
2017-04-08T04:24:16.760Z,0
2017-04-08T04:25:17.289Z,0
2017-04-08T04:26:17.818Z,0
2017-04-08T04:27:18.502Z,0
2017-04-08T04:28:18.881Z,0
2017-04-08T04:29:19.413Z,0
2017-04-08T04:30:19.947Z,0
2017-04-08T04:31:20.472Z,0
2017-04-08T04:32:21.006Z,0
2017-04-08T04:33:21.538Z,0
2017-04-08T04:34:22.069Z,5
2017-04-08T04:35:22.607Z,5
2017-04-08T04:36:23.133Z,5
2017-04-08T04:37:23.659Z,5
2017-04-08T04:38:24.188Z,5
2017-04-08T04:39:24.872Z,5
2017-04-08T04:40:25.253Z,5
2017-04-08T04:41:25.930Z,11
2017-04-08T04:42:26.310Z,11
2017-04-08T04:43:26.990Z,16
2017-04-08T04:44:27.372Z,16
2017-04-08T04:45:27.898Z,22
2017-04-08T04:46:28.432Z,22
2017-04-08T04:47:28.960Z,28
2017-04-08T04:48:29.495Z,28
2017-04-08T04:49:30.178Z,33
2017-04-08T04:50:30.566Z,33
2017-04-08T04:51:31.100Z,39
2017-04-08T04:52:31.636Z,39
2017-04-08T04:53:32.163Z,39
2017-04-08T04:54:32.701Z,45
2017-04-08T04:55:33.234Z,45
2017-04-08T04:56:33.909Z,45
2017-04-08T04:57:34.292Z,45
2017-04-08T04:58:34.971Z,45
2017-04-08T04:59:35.501Z,50
2017-04-08T05:00:36.026Z,50
2017-04-08T05:01:36.409Z,50
2017-04-08T05:02:36.944Z,50
2017-04-08T05:03:37.483Z,50
2017-04-08T05:04:38.004Z,50
2017-04-08T05:05:38.541Z,50
2017-04-08T05:06:39.072Z,50
2017-04-08T05:07:39.607Z,50
2017-04-08T05:08:40.130Z,50
2017-04-08T05:09:40.654Z,50
2017-04-08T05:10:41.186Z,45
2017-04-08T05:11:41.749Z,45
2017-04-08T05:12:42.247Z,45
2017-04-08T05:13:42.775Z,45
2017-04-08T05:14:43.305Z,45
2017-04-08T05:15:43.834Z,45
2017-04-08T05:16:44.371Z,45
2017-04-08T05:17:44.898Z,50
2017-04-08T05:18:45.462Z,50
2017-04-08T05:19:46.113Z,50
2017-04-08T05:20:46.493Z,56
2017-04-08T05:21:47.016Z,56
2017-04-08T05:22:47.550Z,56
2017-04-08T05:23:48.228Z,56
2017-04-08T05:24:48.615Z,56
2017-04-08T05:25:49.136Z,56
2017-04-08T05:26:49.667Z,56
2017-04-08T05:27:50.201Z,56
2017-04-08T05:28:50.731Z,56
2017-04-08T05:29:51.263Z,56
2017-04-08T05:30:51.801Z,61
2017-04-08T05:31:52.327Z,61
2017-04-08T05:32:53.010Z,67
2017-04-08T05:33:53.414Z,67
2017-04-08T05:34:53.933Z,61
2017-04-08T05:35:54.469Z,61
2017-04-08T05:36:55.001Z,67
2017-04-08T05:37:55.561Z,73
2017-04-08T05:38:56.062Z,78
2017-04-08T05:39:56.589Z,84
2017-04-08T05:40:57.125Z,84
2017-04-08T05:41:57.803Z,84
2017-04-08T05:42:58.188Z,84
2017-04-08T05:43:58.715Z,84
2017-04-08T05:44:59.279Z,84
2017-04-08T05:45:59.927Z,84
2017-04-08T05:47:00.306Z,95
2017-04-08T05:48:00.838Z,106
2017-04-08T05:49:01.371Z,112
2017-04-08T05:50:01.898Z,118
2017-04-08T05:51:02.580Z,123
2017-04-08T05:52:02.964Z,129
2017-04-08T05:53:03.508Z,129
2017-04-08T05:54:04.057Z,129
2017-04-08T05:55:04.703Z,135
2017-04-08T05:56:05.237Z,140
2017-04-08T05:57:05.618Z,146
2017-04-08T05:58:06.152Z,151
2017-04-08T05:59:06.678Z,146
2017-04-08T06:00:07.212Z,146
2017-04-08T06:02:08.418Z,135
2017-04-08T06:03:08.805Z,129
2017-04-08T06:04:09.328Z,123
2017-04-08T06:05:09.862Z,123
2017-04-08T06:06:10.401Z,129
2017-04-08T06:07:10.929Z,135
2017-04-08T06:08:11.605Z,135
2017-04-08T06:09:11.992Z,135
2017-04-08T06:10:12.518Z,135
2017-04-08T06:11:13.053Z,129
2017-04-08T06:12:13.582Z,129
2017-04-08T06:13:14.121Z,135
2017-04-08T06:14:14.807Z,140
2017-04-08T06:15:15.191Z,163
2017-04-08T06:16:15.719Z,180
2017-04-08T06:17:16.256Z,208
2017-04-08T06:18:16.782Z,219
2017-04-08T06:19:17.339Z,230
2017-04-08T06:20:17.843Z,241
2017-04-08T06:21:18.381Z,247
2017-04-08T06:22:18.918Z,253
2017-04-08T06:23:19.443Z,258
2017-04-08T06:24:19.982Z,264
2017-04-08T06:25:20.544Z,264
2017-04-08T06:26:21.037Z,264
2017-04-08T06:27:21.570Z,264
2017-04-08T06:28:22.102Z,264
2017-04-08T06:29:22.780Z,264
2017-04-08T06:30:23.315Z,275
2017-04-08T06:31:23.696Z,292
2017-04-08T06:32:24.227Z,309
2017-04-08T06:33:24.767Z,315
2017-04-08T06:34:25.286Z,326
2017-04-08T06:35:25.819Z,343
2017-04-08T06:36:26.497Z,360
2017-04-08T06:37:26.881Z,371
2017-04-08T06:38:27.410Z,388
2017-04-08T06:39:27.942Z,410
2017-04-08T06:40:28.485Z,416
2017-04-08T06:41:29.005Z,438
2017-04-08T06:42:29.543Z,466
2017-04-08T06:43:30.065Z,478
2017-04-08T06:44:30.630Z,489
2017-04-08T06:45:31.124Z,495
2017-04-08T06:46:31.654Z,500
2017-04-08T06:47:32.185Z,489
2017-04-08T06:48:32.871Z,495
2017-04-08T06:49:33.395Z,500
2017-04-08T06:50:33.936Z,517
2017-04-08T06:51:34.316Z,523
2017-04-08T06:52:34.849Z,551
2017-04-08T06:53:35.528Z,579
2017-04-08T06:54:35.922Z,601
2017-04-08T06:55:36.454Z,624
2017-04-08T06:56:36.985Z,652
2017-04-08T06:57:37.523Z,680
2017-04-08T06:58:38.047Z,720
2017-04-08T06:59:38.727Z,753
2017-04-08T07:00:39.120Z,770
2017-04-08T07:01:39.782Z,781
2017-04-08T07:02:40.200Z,776
2017-04-08T07:03:40.700Z,753
2017-04-08T07:04:41.377Z,714
2017-04-08T07:05:41.757Z,652
2017-04-08T07:06:42.290Z,590
2017-04-08T07:07:42.819Z,534
2017-04-08T07:08:43.345Z,495
2017-04-08T07:09:43.878Z,472
2017-04-08T07:10:44.408Z,472
2017-04-08T07:11:44.939Z,472
2017-04-08T07:12:45.506Z,478
2017-04-08T07:13:46.003Z,483
2017-04-08T07:14:46.679Z,506
2017-04-08T07:15:47.060Z,528
2017-04-08T07:16:47.589Z,551
2017-04-08T07:17:48.128Z,568
2017-04-08T07:18:48.806Z,585
2017-04-08T07:19:49.186Z,607
2017-04-08T07:20:49.719Z,635
2017-04-08T07:21:50.247Z,658
2017-04-08T07:22:50.775Z,703
2017-04-08T07:23:51.307Z,742
2017-04-08T07:24:51.834Z,787
2017-04-08T07:25:52.368Z,821
2017-04-08T07:26:53.044Z,871
2017-04-08T07:27:53.424Z,905
2017-04-08T07:28:53.952Z,939
2017-04-08T07:29:54.488Z,978
2017-04-08T07:30:55.169Z,1001
2017-04-08T07:31:55.556Z,1018
2017-04-08T07:32:56.088Z,1040
2017-04-08T07:33:56.619Z,1046
2017-04-08T07:34:57.156Z,1040
2017-04-08T07:35:57.842Z,1023
2017-04-08T07:36:58.227Z,1029
2017-04-08T07:37:58.770Z,1063
2017-04-08T07:38:59.299Z,1085
2017-04-08T07:39:59.830Z,1091
2017-04-08T07:41:00.355Z,1096
2017-04-08T07:42:00.887Z,1113
2017-04-08T07:43:01.419Z,1164
2017-04-08T07:44:01.946Z,1209
2017-04-08T07:45:02.477Z,1226
2017-04-08T07:46:03.021Z,1237
2017-04-08T07:47:03.536Z,1215
2017-04-08T07:48:04.071Z,1175
2017-04-08T07:49:04.597Z,1136
2017-04-08T07:50:05.132Z,1096
2017-04-08T07:51:05.661Z,1091
2017-04-08T07:52:06.192Z,1125
2017-04-08T07:53:06.721Z,1141
2017-04-08T07:54:07.256Z,1147
2017-04-08T07:55:07.783Z,1164
2017-04-08T07:56:08.316Z,1192
2017-04-08T07:57:08.847Z,1237
2017-04-08T07:58:09.381Z,1293
2017-04-08T07:59:09.902Z,1293
2017-04-08T08:00:10.438Z,1276
2017-04-08T08:01:10.969Z,1282
2017-04-08T08:02:11.502Z,1293
2017-04-08T08:03:12.033Z,1310
2017-04-08T08:04:12.706Z,1293
2017-04-08T08:05:13.098Z,1226
2017-04-08T08:06:13.629Z,1147
2017-04-08T08:07:14.306Z,1074
2017-04-08T08:08:14.688Z,1051
2017-04-08T08:09:15.219Z,1063
2017-04-08T08:10:15.747Z,1096
2017-04-08T08:11:16.273Z,1102
2017-04-08T08:12:16.953Z,1063
2017-04-08T08:13:17.336Z,967
2017-04-08T08:14:17.874Z,843
2017-04-08T08:15:18.407Z,714
2017-04-08T08:16:18.944Z,607
2017-04-08T08:17:19.477Z,540
2017-04-08T08:18:20.014Z,517
2017-04-08T08:19:20.547Z,523
2017-04-08T08:20:21.078Z,568
2017-04-08T08:21:21.611Z,663
2017-04-08T08:22:22.146Z,793
2017-04-08T08:23:22.677Z,922
2017-04-08T08:24:23.203Z,1057
2017-04-08T08:25:23.739Z,1192
2017-04-08T08:26:24.280Z,1310
2017-04-08T08:27:24.798Z,1406
2017-04-08T08:28:25.332Z,1479
2017-04-08T08:29:25.857Z,1558
2017-04-08T08:30:26.395Z,1631
2017-04-08T08:31:26.920Z,1715
2017-04-08T08:32:27.450Z,1788
2017-04-08T08:33:27.986Z,1794
2017-04-08T08:34:28.519Z,1783
2017-04-08T08:35:29.048Z,1771
2017-04-08T08:36:29.597Z,1749
2017-04-08T08:37:30.122Z,1665
2017-04-08T08:38:30.643Z,1501
2017-04-08T08:39:31.210Z,1383
2017-04-08T08:40:31.854Z,1209
2017-04-08T08:41:32.235Z,1068
2017-04-08T08:42:32.779Z,990
2017-04-08T08:43:33.307Z,933
2017-04-08T08:44:33.833Z,866
2017-04-08T08:45:34.515Z,810
2017-04-08T08:46:34.893Z,765
2017-04-08T08:47:35.424Z,725
2017-04-08T08:48:35.959Z,691
2017-04-08T08:49:36.499Z,663
2017-04-08T08:50:37.044Z,630
2017-04-08T08:51:37.697Z,601
2017-04-08T08:52:38.222Z,590
2017-04-08T08:53:38.620Z,579
2017-04-08T08:54:39.287Z,573
2017-04-08T08:55:39.844Z,573
2017-04-08T08:56:40.360Z,568
2017-04-08T08:57:40.899Z,556
2017-04-08T08:58:41.304Z,556
2017-04-08T08:59:41.964Z,568
2017-04-08T09:00:42.374Z,596
2017-04-08T09:01:43.028Z,635
2017-04-08T09:02:43.554Z,691
2017-04-08T09:03:44.091Z,765
2017-04-08T09:04:44.489Z,855
2017-04-08T09:05:45.151Z,922
2017-04-08T09:06:45.680Z,967
2017-04-08T09:07:46.234Z,995
2017-04-08T09:08:46.736Z,1035
2017-04-08T09:09:47.270Z,1080
2017-04-08T09:10:47.800Z,1141
2017-04-08T09:11:48.187Z,1215
2017-04-08T09:12:48.719Z,1288
2017-04-08T09:13:49.401Z,1316
2017-04-08T09:14:49.778Z,1310
2017-04-08T09:15:50.324Z,1271
2017-04-08T09:16:50.861Z,1231
2017-04-08T09:17:51.399Z,1203
2017-04-08T09:18:51.911Z,1192
2017-04-08T09:19:52.467Z,1203
2017-04-08T09:20:52.983Z,1243
2017-04-08T09:21:53.515Z,1299
2017-04-08T09:22:54.033Z,1395
2017-04-08T09:23:54.563Z,1462
2017-04-08T09:24:55.093Z,1558
2017-04-08T09:25:55.658Z,1642
2017-04-08T09:26:56.156Z,1715
2017-04-08T09:27:56.685Z,1794
2017-04-08T09:28:57.217Z,1873
2017-04-08T09:29:57.900Z,1929
2017-04-08T09:30:58.281Z,1968
2017-04-08T09:31:58.811Z,1985
2017-04-08T09:32:59.342Z,2002
2017-04-08T09:33:59.871Z,2019
2017-04-08T09:35:00.405Z,2047
2017-04-08T09:36:00.935Z,2075
2017-04-08T09:37:01.470Z,2086
2017-04-08T09:38:02.018Z,2081
2017-04-08T09:39:02.555Z,2058
2017-04-08T09:40:03.072Z,2019
2017-04-08T09:41:03.642Z,1968
2017-04-08T09:42:04.140Z,1890
2017-04-08T09:43:04.823Z,1800
2017-04-08T09:44:05.200Z,1681
2017-04-08T09:45:05.736Z,1569
2017-04-08T09:46:06.413Z,1535
2017-04-08T09:47:06.789Z,1563
2017-04-08T09:48:07.318Z,1580
2017-04-08T09:49:07.850Z,1580
2017-04-08T09:50:08.529Z,1563
2017-04-08T09:51:09.054Z,1552
2017-04-08T09:52:09.586Z,1541
2017-04-08T09:53:09.966Z,1524
2017-04-08T09:54:10.648Z,1445
2017-04-08T09:55:11.030Z,1344
2017-04-08T09:56:11.572Z,1316
2017-04-08T09:57:12.096Z,1338
2017-04-08T09:58:12.621Z,1417
2017-04-08T09:59:13.155Z,1530
2017-04-08T10:00:13.836Z,1670
2017-04-08T10:01:14.219Z,1794
2017-04-08T10:02:14.898Z,1890
2017-04-08T10:03:15.284Z,2002
2017-04-08T10:04:15.835Z,2148
2017-04-08T10:05:16.346Z,2272
2017-04-08T10:06:16.901Z,2396
2017-04-08T10:07:17.401Z,2480
2017-04-08T10:08:17.943Z,2525
2017-04-08T10:09:18.462Z,2576
2017-04-08T10:10:18.986Z,2615
2017-04-08T10:11:19.520Z,2666
2017-04-08T10:12:20.203Z,2700
2017-04-08T10:13:20.585Z,2790
2017-04-08T10:14:21.113Z,3031
2017-04-08T10:15:21.644Z,3031
2017-04-08T10:16:22.175Z,2998
2017-04-08T10:17:22.704Z,3020
2017-04-08T10:18:23.237Z,3155
2017-04-08T10:19:23.777Z,3279
2017-04-08T10:20:24.310Z,3566
2017-04-08T10:21:24.844Z,3060
2017-04-08T10:22:25.376Z,3009
2017-04-08T10:23:25.911Z,2947
2017-04-08T10:24:26.591Z,2835
2017-04-08T10:25:26.974Z,3746
2017-04-08T10:26:27.509Z,2767
2017-04-08T10:27:28.041Z,2745
2017-04-08T10:28:28.572Z,2716
2017-04-08T10:29:29.100Z,2542
2017-04-08T10:30:29.632Z,2368
2017-04-08T10:31:30.164Z,2160
2017-04-08T10:32:30.690Z,1980
2017-04-08T10:33:31.225Z,1828
2017-04-08T10:34:31.761Z,1698
2017-04-08T10:35:32.288Z,1614
2017-04-08T10:36:32.822Z,1580
2017-04-08T10:37:33.348Z,1614
2017-04-08T10:38:33.876Z,1698
2017-04-08T10:39:34.408Z,1783
2017-04-08T10:40:34.937Z,1878
2017-04-08T10:41:35.468Z,1957
2017-04-08T10:42:36.153Z,2030
2017-04-08T10:43:36.530Z,2126
2017-04-08T10:44:37.059Z,2283
2017-04-08T10:45:37.596Z,3240
2017-04-08T10:46:38.119Z,2497
2017-04-08T10:47:38.650Z,2536
2017-04-08T10:48:39.181Z,2480
2017-04-08T10:49:39.718Z,2469
2017-04-08T10:50:40.241Z,2475
2017-04-08T10:51:40.771Z,2328
2017-04-08T10:52:41.306Z,2199
2017-04-08T10:53:41.840Z,2193
2017-04-08T10:54:42.365Z,2221
2017-04-08T10:55:42.897Z,2486
2017-04-08T10:56:43.432Z,2373
2017-04-08T10:57:43.958Z,2435
2017-04-08T10:58:44.489Z,2458
2017-04-08T10:59:45.026Z,2446
2017-04-08T11:00:45.563Z,2418
2017-04-08T11:01:46.095Z,2340
2017-04-08T11:02:46.776Z,2193
2017-04-08T11:03:47.155Z,2019
2017-04-08T11:04:47.684Z,1878
2017-04-08T11:05:48.218Z,1788
2017-04-08T11:06:48.895Z,1715
2017-04-08T11:07:49.283Z,1681
2017-04-08T11:08:49.811Z,1665
2017-04-08T11:09:50.343Z,1636
2017-04-08T11:10:50.880Z,1586
2017-04-08T11:11:51.410Z,1524
2017-04-08T11:12:52.087Z,1496
2017-04-08T11:13:52.474Z,1501
2017-04-08T11:14:53.007Z,1501
2017-04-08T11:15:53.529Z,1513
2017-04-08T11:16:54.060Z,1586
2017-04-08T11:17:54.594Z,1670
2017-04-08T11:18:55.123Z,1771
2017-04-08T11:19:55.652Z,1918
2017-04-08T11:20:56.181Z,2019
2017-04-08T11:21:56.731Z,2109
2017-04-08T11:22:57.244Z,2131
2017-04-08T11:23:57.774Z,2165
2017-04-08T11:24:58.300Z,2176
2017-04-08T11:25:58.829Z,2182
2017-04-08T11:26:59.360Z,2120
2017-04-08T11:27:59.895Z,1996
2017-04-08T11:29:00.457Z,1884
2017-04-08T11:30:00.953Z,1811
2017-04-08T11:31:01.634Z,1738
2017-04-08T11:32:02.011Z,1693
2017-04-08T11:33:02.546Z,1676
2017-04-08T11:34:03.082Z,1698
2017-04-08T11:35:03.639Z,1738
2017-04-08T11:36:04.139Z,1794
2017-04-08T11:37:04.669Z,1833
2017-04-08T11:38:05.210Z,1861
2017-04-08T11:39:05.738Z,1878
2017-04-08T11:40:06.276Z,1861
2017-04-08T11:41:06.809Z,1833
2017-04-08T11:42:07.342Z,1822
2017-04-08T11:43:08.022Z,1822
2017-04-08T11:44:08.406Z,1833
2017-04-08T11:45:08.937Z,1878
2017-04-08T11:46:09.460Z,1940
2017-04-08T11:47:09.988Z,2070
2017-04-08T11:48:10.519Z,2362
2017-04-08T11:49:11.044Z,3802
2017-04-08T11:50:11.579Z,2345
2017-04-08T11:51:12.288Z,2295
2017-04-08T11:52:12.636Z,2221
2017-04-08T11:53:13.167Z,2171
2017-04-08T11:54:13.699Z,2143
2017-04-08T11:55:14.224Z,2120
2017-04-08T11:56:14.760Z,2081
2017-04-08T11:57:15.289Z,2081
2017-04-08T11:58:15.821Z,2098
2017-04-08T11:59:16.356Z,2109
2017-04-08T12:00:17.027Z,2036
2017-04-08T12:01:17.417Z,1946
2017-04-08T12:02:17.948Z,1816
2017-04-08T12:03:18.482Z,1665
2017-04-08T12:04:19.012Z,1546
2017-04-08T12:05:19.691Z,1445
2017-04-08T12:06:20.072Z,1395
2017-04-08T12:07:20.751Z,1355
2017-04-08T12:08:21.133Z,1321
2017-04-08T12:09:21.695Z,1293
2017-04-08T12:10:22.195Z,1310
2017-04-08T12:11:22.724Z,1366
2017-04-08T12:12:23.257Z,1423
2017-04-08T12:13:23.930Z,1456
2017-04-08T12:14:24.309Z,1462
2017-04-08T12:15:24.990Z,1496
2017-04-08T12:16:25.371Z,1546
2017-04-08T12:17:25.903Z,1631
2017-04-08T12:18:26.435Z,1693
2017-04-08T12:19:26.964Z,1715
2017-04-08T12:20:27.503Z,1743
2017-04-08T12:21:28.039Z,1788
2017-04-08T12:22:28.573Z,1873
2017-04-08T12:23:29.107Z,1957
2017-04-08T12:24:29.642Z,2036
2017-04-08T12:25:30.175Z,2098
2017-04-08T12:26:30.706Z,2126
2017-04-08T12:27:31.233Z,2126
2017-04-08T12:28:31.916Z,2126
2017-04-08T12:29:32.452Z,2154
2017-04-08T12:30:32.827Z,2205
2017-04-08T12:31:33.514Z,2233
2017-04-08T12:32:33.883Z,2238
2017-04-08T12:33:34.413Z,2255
2017-04-08T12:34:35.104Z,2283
2017-04-08T12:35:35.625Z,2373
2017-04-08T12:36:36.016Z,2413
2017-04-08T12:37:36.690Z,2475
2017-04-08T12:38:37.067Z,2576
2017-04-08T12:39:37.601Z,2739
2017-04-08T12:40:38.128Z,2964
2017-04-08T12:41:38.849Z,3318
2017-04-08T12:42:39.188Z,4370
2017-04-08T12:43:39.735Z,5405
2017-04-08T12:44:40.253Z,3442
2017-04-08T12:45:40.784Z,3240
2017-04-08T12:46:41.342Z,3183
2017-04-08T12:47:41.995Z,3082
2017-04-08T12:48:42.374Z,3223
2017-04-08T12:49:42.904Z,3234
2017-04-08T12:50:43.443Z,4106
2017-04-08T12:51:43.967Z,2896
2017-04-08T12:52:44.500Z,2885
2017-04-08T12:53:45.032Z,2880
2017-04-08T12:54:45.577Z,3048
2017-04-08T12:55:46.240Z,2975
2017-04-08T12:56:46.768Z,3048
2017-04-08T12:57:47.152Z,2913
2017-04-08T12:58:47.680Z,3003
2017-04-08T12:59:48.210Z,2981
2017-04-08T13:00:48.749Z,2722
2017-04-08T13:01:49.295Z,2565
2017-04-08T13:02:49.826Z,2475
2017-04-08T13:03:50.363Z,2683
2017-04-08T13:04:50.888Z,2750
2017-04-08T13:05:51.439Z,2750
2017-04-08T13:06:51.960Z,3380
2017-04-08T13:07:52.496Z,3296
2017-04-08T13:08:53.027Z,3358
2017-04-08T13:09:53.564Z,3931
2017-04-08T13:10:54.100Z,3645
2017-04-08T13:11:54.759Z,2295
2017-04-08T13:12:55.292Z,2165
2017-04-08T13:13:55.697Z,2120
2017-04-08T13:14:56.352Z,2137
2017-04-08T13:15:56.738Z,2221
2017-04-08T13:16:57.261Z,3566
2017-04-08T13:17:57.786Z,3403
2017-04-08T13:18:58.323Z,2542
2017-04-08T13:19:58.850Z,2531
2017-04-08T13:20:59.375Z,2497
2017-04-08T13:21:59.905Z,2424
2017-04-08T13:23:00.464Z,2356
2017-04-08T13:24:01.002Z,2323
2017-04-08T13:25:01.495Z,2351
2017-04-08T13:26:02.024Z,2649
2017-04-08T13:27:02.556Z,4539
2017-04-08T13:28:03.089Z,3341
2017-04-08T13:29:03.619Z,4095
2017-04-08T13:30:04.148Z,3138
2017-04-08T13:31:04.674Z,3009
2017-04-08T13:32:05.206Z,3667
2017-04-08T13:33:05.740Z,4578
2017-04-08T13:34:06.268Z,3296
2017-04-08T13:35:06.802Z,2745
2017-04-08T13:36:07.334Z,2683
2017-04-08T13:37:07.867Z,2413
2017-04-08T13:38:08.393Z,2711
2017-04-08T13:39:08.927Z,2891
2017-04-08T13:40:09.455Z,2520
2017-04-08T13:41:10.002Z,2165
2017-04-08T13:42:10.525Z,2086
2017-04-08T13:43:11.062Z,2047
2017-04-08T13:44:11.747Z,2013
2017-04-08T13:45:12.130Z,2081
2017-04-08T13:46:12.660Z,2255
2017-04-08T13:47:13.194Z,2666
2017-04-08T13:48:13.715Z,4235
2017-04-08T13:49:14.252Z,4224
2017-04-08T13:50:14.780Z,4156
2017-04-08T13:51:15.309Z,3948
2017-04-08T13:52:15.839Z,4061
2017-04-08T13:53:16.380Z,3088
2017-04-08T13:54:16.896Z,3600
2017-04-08T13:55:17.425Z,2908
2017-04-08T13:56:18.111Z,2857
2017-04-08T13:57:18.489Z,2621
2017-04-08T13:58:19.018Z,2570
2017-04-08T13:59:19.552Z,2255
2017-04-08T14:00:20.080Z,2160
2017-04-08T14:01:20.608Z,2025
2017-04-08T14:02:21.586Z,1912
2017-04-08T14:03:21.812Z,1867
2017-04-08T14:04:22.345Z,1822
2017-04-08T14:05:22.756Z,1743